Metar z połowy godziny Komunikat METAR ze strony awiacja.imgw.pl Metar G30 EPRZ METAR EPRZ 240430Z 10007KT 6000 OVC035 M06/M07 Q1028 R27/81//95 =